createdAt,value
2023-04-30T00:01:48.046Z,2.33
2023-04-30T00:04:50.066Z,2.70
2023-04-30T00:07:52.298Z,2.78
2023-04-30T00:10:54.335Z,2.47
2023-04-30T00:13:57.195Z,1.95
2023-04-30T00:16:59.132Z,2.53
2023-04-30T00:20:01.317Z,2.33
2023-04-30T00:23:03.201Z,2.95
2023-04-30T00:26:05.151Z,2.77
2023-04-30T00:29:07.080Z,2.58
2023-04-30T00:32:09.193Z,2.90
2023-04-30T00:35:11.650Z,3.30
2023-04-30T00:38:13.595Z,2.13
2023-04-30T00:41:16.683Z,3.00
2023-04-30T00:44:18.662Z,2.55
2023-04-30T00:47:20.904Z,3.22
2023-04-30T00:50:23.222Z,4.03
2023-04-30T00:53:25.488Z,2.22
2023-04-30T00:56:27.432Z,2.97
2023-04-30T00:59:30.232Z,3.75
2023-04-30T01:02:32.467Z,3.08
2023-04-30T01:05:34.461Z,3.20
2023-04-30T01:08:36.662Z,3.45
2023-04-30T01:11:56.587Z,2.43
2023-04-30T01:15:33.570Z,2.88
2023-04-30T01:18:42.058Z,3.00
2023-04-30T01:21:45.464Z,3.40
2023-04-30T01:24:50.448Z,3.90
2023-04-30T01:28:16.407Z,2.60
2023-04-30T01:31:19.630Z,2.67
2023-04-30T01:34:21.903Z,2.70
2023-04-30T01:37:52.668Z,4.05
2023-04-30T01:41:07.048Z,3.50
2023-04-30T01:44:53.360Z,2.67
2023-04-30T01:48:13.579Z,2.78
2023-04-30T01:51:22.346Z,3.47
2023-04-30T01:54:44.383Z,3.58
2023-04-30T01:57:58.362Z,3.25
2023-04-30T02:01:00.357Z,3.07
2023-04-30T02:04:03.796Z,3.08
2023-04-30T02:07:06.106Z,2.28
2023-04-30T02:10:08.964Z,3.35
2023-04-30T02:13:11.970Z,2.70
2023-04-30T02:16:13.944Z,2.07
2023-04-30T02:19:16.532Z,2.42
2023-04-30T02:22:18.423Z,3.50
2023-04-30T02:25:20.454Z,4.25
2023-04-30T02:28:22.586Z,2.88
2023-04-30T02:31:24.613Z,3.07
2023-04-30T02:34:26.686Z,3.10
2023-04-30T02:37:28.631Z,3.13
2023-04-30T02:40:30.694Z,2.85
2023-04-30T02:43:32.682Z,2.38
2023-04-30T02:46:35.793Z,3.20
2023-04-30T02:49:37.952Z,3.20
2023-04-30T02:52:39.995Z,2.35
2023-04-30T02:55:41.888Z,2.17
2023-04-30T02:58:44.476Z,2.15
2023-04-30T03:01:47.238Z,2.77
2023-04-30T03:04:50.162Z,2.75
2023-04-30T03:07:52.114Z,3.13
2023-04-30T03:10:54.674Z,2.97
2023-04-30T03:13:56.586Z,2.90
2023-04-30T03:16:58.567Z,3.40
2023-04-30T03:20:00.608Z,2.10
2023-04-30T03:23:03.363Z,2.88
2023-04-30T03:26:05.418Z,2.63
2023-04-30T03:29:07.746Z,3.05
2023-04-30T03:32:09.925Z,2.50
2023-04-30T03:35:12.132Z,2.25
2023-04-30T03:38:14.081Z,2.50
2023-04-30T03:41:16.133Z,3.40
2023-04-30T03:44:18.279Z,2.53
2023-04-30T03:47:20.365Z,2.07
2023-04-30T03:50:22.783Z,1.92
2023-04-30T03:53:26.588Z,2.45
2023-04-30T03:56:28.561Z,2.30
2023-04-30T03:59:32.462Z,2.95
2023-04-30T04:02:34.612Z,2.83
2023-04-30T04:05:36.888Z,2.20
2023-04-30T04:08:38.893Z,2.13
2023-04-30T04:11:40.946Z,2.47
2023-04-30T04:14:43.018Z,2.08
2023-04-30T04:17:44.978Z,1.57
2023-04-30T04:20:46.992Z,2.63
2023-04-30T04:23:48.922Z,1.55
2023-04-30T04:26:51.405Z,2.70
2023-04-30T04:29:55.081Z,3.40
2023-04-30T04:32:57.693Z,2.60
2023-04-30T04:35:59.654Z,1.92
2023-04-30T04:39:02.378Z,3.40
2023-04-30T04:42:05.208Z,2.72
2023-04-30T04:45:08.458Z,2.33
2023-04-30T04:48:10.589Z,2.17
2023-04-30T04:51:12.922Z,2.58
2023-04-30T04:54:14.846Z,2.95
2023-04-30T04:57:16.773Z,2.47
2023-04-30T05:00:19.328Z,2.90
2023-04-30T05:03:21.960Z,2.60
2023-04-30T05:06:25.052Z,2.25
2023-04-30T05:09:27.083Z,2.55
2023-04-30T05:12:28.957Z,2.97
2023-04-30T05:15:31.188Z,2.42
2023-04-30T05:18:33.435Z,2.73
2023-04-30T05:21:36.038Z,2.13
2023-04-30T05:24:53.170Z,2.47
2023-04-30T05:27:55.084Z,2.70
2023-04-30T05:30:56.987Z,1.63
2023-04-30T05:33:58.896Z,2.80
2023-04-30T05:37:01.627Z,2.92
2023-04-30T05:40:03.735Z,1.80
2023-04-30T05:43:05.642Z,1.90
2023-04-30T05:46:07.883Z,2.15
2023-04-30T05:49:10.225Z,1.90
2023-04-30T05:52:12.164Z,2.63
2023-04-30T05:55:14.167Z,2.10
2023-04-30T05:58:16.235Z,2.65
2023-04-30T06:01:20.324Z,1.58
2023-04-30T06:04:22.523Z,2.23
2023-04-30T06:07:24.448Z,2.95
2023-04-30T06:10:26.840Z,2.88
2023-04-30T06:13:28.889Z,2.38
2023-04-30T06:16:31.392Z,2.60
2023-04-30T06:19:33.355Z,3.33
2023-04-30T06:22:35.300Z,3.10
2023-04-30T06:25:37.319Z,2.85
2023-04-30T06:28:39.359Z,3.22
2023-04-30T06:31:41.328Z,3.45
2023-04-30T06:34:43.310Z,3.37
2023-04-30T06:37:45.611Z,2.80
2023-04-30T06:40:48.053Z,2.75
2023-04-30T06:43:50.112Z,2.70
2023-04-30T06:46:51.959Z,2.83
2023-04-30T06:49:53.993Z,3.03
2023-04-30T06:52:56.084Z,4.18
2023-04-30T06:55:58.034Z,3.00
2023-04-30T06:59:00.239Z,4.70
2023-04-30T07:02:02.199Z,2.60
2023-04-30T07:05:04.443Z,3.20
2023-04-30T07:08:07.317Z,3.58
2023-04-30T07:11:09.317Z,2.78
2023-04-30T07:14:15.165Z,3.10
2023-04-30T07:17:17.552Z,2.70
2023-04-30T07:20:19.681Z,3.07
2023-04-30T07:23:21.867Z,2.40
2023-04-30T07:26:25.863Z,1.92
2023-04-30T07:29:28.872Z,2.30
2023-04-30T07:32:31.035Z,2.58
2023-04-30T07:35:33.064Z,2.30
2023-04-30T07:38:35.158Z,2.40
2023-04-30T07:41:37.179Z,2.00
2023-04-30T07:44:39.216Z,2.53
2023-04-30T07:47:41.280Z,2.55
2023-04-30T07:50:43.195Z,1.87
2023-04-30T07:53:45.360Z,1.73
2023-04-30T07:56:48.943Z,3.08
2023-04-30T07:59:53.126Z,3.95
2023-04-30T08:02:55.670Z,2.53
2023-04-30T08:05:58.114Z,3.00
2023-04-30T08:09:00.061Z,1.75
2023-04-30T08:12:05.000Z,2.60
2023-04-30T08:15:10.419Z,2.20
2023-04-30T08:18:12.301Z,2.50
2023-04-30T08:21:14.632Z,2.83
2023-04-30T08:24:16.611Z,2.47
2023-04-30T08:27:18.556Z,1.90
2023-04-30T08:30:20.603Z,2.53
2023-04-30T08:33:22.675Z,2.20
2023-04-30T08:36:24.718Z,2.00
2023-04-30T08:39:27.352Z,1.92
2023-04-30T08:42:31.871Z,2.40
2023-04-30T08:45:35.707Z,2.42
2023-04-30T08:48:37.878Z,1.85
2023-04-30T08:51:40.037Z,2.60
2023-04-30T08:54:44.292Z,2.10
2023-04-30T08:57:46.206Z,2.22
2023-04-30T09:00:48.195Z,2.05
2023-04-30T09:03:50.535Z,2.22
2023-04-30T09:06:58.881Z,2.10
2023-04-30T09:10:00.890Z,2.05
2023-04-30T09:13:03.153Z,2.60
2023-04-30T09:16:05.460Z,2.10
2023-04-30T09:19:07.513Z,2.30
2023-04-30T09:22:23.352Z,1.67
2023-04-30T09:25:38.648Z,1.70
2023-04-30T09:29:08.455Z,2.50
2023-04-30T09:32:11.528Z,2.03
2023-04-30T09:35:43.993Z,2.00
2023-04-30T09:38:46.235Z,2.03
2023-04-30T09:41:48.262Z,1.30
2023-04-30T09:44:50.295Z,1.60
2023-04-30T09:47:59.962Z,2.17
2023-04-30T09:51:08.085Z,1.88
2023-04-30T09:54:11.789Z,1.87
2023-04-30T09:57:15.537Z,1.80
2023-04-30T10:00:18.675Z,1.67
2023-04-30T10:03:22.882Z,1.50
2023-04-30T10:06:25.703Z,1.50
2023-04-30T10:09:32.316Z,1.40
2023-04-30T10:12:58.297Z,1.27
2023-04-30T10:16:08.904Z,1.77
2023-04-30T10:19:18.992Z,0.98
2023-04-30T10:22:21.307Z,1.75
2023-04-30T10:25:23.635Z,1.57
2023-04-30T10:28:26.926Z,1.60
2023-04-30T10:31:30.984Z,1.60
2023-04-30T10:35:08.553Z,1.10
2023-04-30T10:38:21.826Z,1.70
2023-04-30T10:41:26.574Z,1.50
2023-04-30T10:44:28.592Z,1.92
2023-04-30T10:47:31.208Z,1.52
2023-04-30T10:50:33.359Z,1.40
2023-04-30T10:53:37.051Z,1.60
2023-04-30T10:56:38.935Z,1.40
2023-04-30T10:59:51.261Z,1.13
2023-04-30T11:03:03.664Z,1.05
2023-04-30T11:06:13.615Z,1.30
2023-04-30T11:09:17.060Z,1.10
2023-04-30T11:12:28.462Z,1.00
2023-04-30T11:15:48.572Z,1.40
2023-04-30T11:18:51.788Z,1.00
2023-04-30T11:22:06.086Z,1.00
2023-04-30T11:25:15.252Z,0.93
2023-04-30T11:28:19.770Z,1.00
2023-04-30T11:31:22.046Z,0.60
2023-04-30T11:34:23.980Z,0.73
2023-04-30T11:37:40.217Z,0.93
2023-04-30T11:40:43.024Z,0.88
2023-04-30T11:43:45.072Z,0.53
2023-04-30T11:46:47.285Z,0.85
2023-04-30T11:49:51.600Z,1.20
2023-04-30T11:52:54.883Z,0.82
2023-04-30T11:55:56.983Z,0.50
2023-04-30T11:58:58.944Z,0.90
2023-04-30T12:02:00.913Z,1.20
2023-04-30T12:05:02.854Z,1.05
2023-04-30T12:08:09.345Z,0.90
2023-04-30T12:11:25.830Z,0.90
2023-04-30T12:14:29.661Z,0.60
2023-04-30T12:17:35.752Z,0.70
2023-04-30T12:20:38.276Z,0.80
2023-04-30T12:23:40.777Z,0.80
2023-04-30T12:26:43.432Z,0.85
2023-04-30T12:29:47.442Z,0.87
2023-04-30T12:32:51.179Z,0.52
2023-04-30T12:35:53.904Z,0.60
2023-04-30T12:39:22.699Z,0.52
2023-04-30T12:42:24.963Z,0.70
2023-04-30T12:45:48.678Z,0.80
2023-04-30T12:48:51.040Z,0.80
2023-04-30T12:51:59.053Z,0.45
2023-04-30T12:55:35.271Z,0.82
2023-04-30T12:58:38.716Z,0.70
2023-04-30T13:01:46.230Z,0.50
2023-04-30T13:04:49.651Z,0.40
2023-04-30T13:07:55.828Z,0.47
2023-04-30T13:10:57.796Z,0.50
2023-04-30T13:13:59.960Z,0.70
2023-04-30T13:17:05.658Z,0.40
2023-04-30T13:20:08.501Z,0.52
2023-04-30T13:23:11.947Z,0.30
2023-04-30T13:26:13.897Z,0.40
2023-04-30T13:29:15.836Z,0.55
2023-04-30T13:32:18.143Z,0.50
2023-04-30T13:35:20.999Z,0.40
2023-04-30T13:38:22.949Z,0.50
2023-04-30T13:41:26.873Z,0.32
2023-04-30T13:44:28.774Z,0.43
2023-04-30T13:47:30.708Z,0.60
2023-04-30T13:50:32.779Z,0.70
2023-04-30T13:53:36.671Z,0.60
2023-04-30T13:56:38.549Z,0.40
2023-04-30T13:59:40.559Z,0.75
2023-04-30T14:02:42.890Z,0.73
2023-04-30T14:05:45.367Z,0.68
2023-04-30T14:08:47.344Z,1.13
2023-04-30T14:11:49.270Z,0.63
2023-04-30T14:14:51.444Z,0.73
2023-04-30T14:17:54.095Z,0.60
2023-04-30T14:20:56.151Z,0.90
2023-04-30T14:23:58.004Z,0.70
2023-04-30T14:27:01.045Z,0.70
2023-04-30T14:30:04.189Z,0.68
2023-04-30T14:33:06.351Z,0.53
2023-04-30T14:36:08.679Z,0.60
2023-04-30T14:39:10.678Z,0.73
2023-04-30T14:42:13.026Z,0.85
2023-04-30T14:45:15.222Z,0.80
2023-04-30T14:48:17.171Z,0.73
2023-04-30T14:51:19.000Z,0.90
2023-04-30T14:54:21.164Z,1.13
2023-04-30T14:57:23.687Z,0.82
2023-04-30T15:00:26.213Z,1.25
2023-04-30T15:03:28.348Z,1.07
2023-04-30T15:06:31.110Z,0.80
2023-04-30T15:09:33.230Z,0.70
2023-04-30T15:12:35.930Z,1.02
2023-04-30T15:15:37.810Z,1.00
2023-04-30T15:18:40.506Z,0.87
2023-04-30T15:21:42.430Z,1.73
2023-04-30T15:24:44.375Z,1.08
2023-04-30T15:27:46.321Z,1.00
2023-04-30T15:30:48.268Z,1.10
2023-04-30T15:33:50.460Z,1.20
2023-04-30T15:36:52.414Z,1.25
2023-04-30T15:39:54.571Z,1.42
2023-04-30T15:42:56.597Z,0.90
2023-04-30T15:45:58.629Z,1.75
2023-04-30T15:49:01.100Z,1.30
2023-04-30T15:52:03.028Z,1.33
2023-04-30T15:55:05.224Z,1.30
2023-04-30T15:58:07.203Z,1.20
2023-04-30T16:01:09.157Z,1.13
2023-04-30T16:04:11.901Z,1.10
2023-04-30T16:07:13.955Z,1.30
2023-04-30T16:10:15.997Z,1.10
2023-04-30T16:13:18.018Z,0.82
2023-04-30T16:16:20.041Z,0.98
2023-04-30T16:19:22.012Z,1.50
2023-04-30T16:22:24.469Z,1.50
2023-04-30T16:25:26.669Z,1.00
2023-04-30T16:28:28.633Z,0.90
2023-04-30T16:31:31.117Z,0.85
2023-04-30T16:34:33.173Z,1.00
2023-04-30T16:37:35.953Z,1.10
2023-04-30T16:40:38.005Z,0.95
2023-04-30T16:43:39.987Z,0.90
2023-04-30T16:46:41.888Z,0.68
2023-04-30T16:49:43.869Z,0.83
2023-04-30T16:52:47.345Z,1.10
2023-04-30T16:55:49.267Z,0.93
2023-04-30T16:58:51.439Z,0.80
2023-04-30T17:01:56.488Z,1.55
2023-04-30T17:04:58.471Z,0.97
2023-04-30T17:08:00.545Z,1.02
2023-04-30T17:11:02.591Z,1.30
2023-04-30T17:14:04.714Z,1.20
2023-04-30T17:17:06.904Z,1.25
2023-04-30T17:20:09.410Z,1.30
2023-04-30T17:23:11.375Z,1.42
2023-04-30T17:26:13.470Z,1.40
2023-04-30T17:29:16.642Z,1.35
2023-04-30T17:32:18.917Z,1.23
2023-04-30T17:35:21.278Z,0.90
2023-04-30T17:38:23.301Z,1.20
2023-04-30T17:41:26.332Z,1.08
2023-04-30T17:44:28.410Z,1.10
2023-04-30T17:47:31.894Z,1.33
2023-04-30T17:50:39.183Z,1.37
2023-04-30T17:53:41.470Z,2.53
2023-04-30T17:56:44.612Z,5.80
2023-04-30T17:59:47.077Z,2.88
2023-04-30T18:02:49.060Z,1.70
2023-04-30T18:05:51.281Z,1.20
2023-04-30T18:08:53.899Z,1.08
2023-04-30T18:11:57.101Z,1.15
2023-04-30T18:15:01.021Z,0.60
2023-04-30T18:18:03.492Z,1.25
2023-04-30T18:21:05.723Z,1.00
2023-04-30T18:24:07.641Z,1.27
2023-04-30T18:27:10.191Z,1.40
2023-04-30T18:30:12.860Z,1.15
2023-04-30T18:33:15.069Z,1.00
2023-04-30T18:36:16.966Z,3.80
2023-04-30T18:39:19.314Z,1.02
2023-04-30T18:42:22.494Z,1.00
2023-04-30T18:45:24.570Z,0.90
2023-04-30T18:48:26.948Z,1.55
2023-04-30T18:51:28.906Z,0.80
2023-04-30T18:54:30.978Z,2.00
2023-04-30T18:57:33.020Z,1.25
2023-04-30T19:00:35.482Z,1.25
2023-04-30T19:03:38.095Z,1.15
2023-04-30T19:06:40.576Z,0.80
2023-04-30T19:09:45.198Z,0.68
2023-04-30T19:12:47.692Z,0.98
2023-04-30T19:15:49.790Z,0.98
2023-04-30T19:18:52.143Z,1.00
2023-04-30T19:21:54.677Z,0.80
2023-04-30T19:24:56.654Z,1.13
2023-04-30T19:27:58.854Z,2.25
2023-04-30T19:31:01.134Z,4.78
2023-04-30T19:34:03.910Z,4.03
2023-04-30T19:37:06.254Z,2.47
2023-04-30T19:40:12.555Z,1.38
2023-04-30T19:43:14.979Z,0.98
2023-04-30T19:46:17.306Z,1.30
2023-04-30T19:49:19.576Z,1.33
2023-04-30T19:52:22.082Z,1.20
2023-04-30T19:55:24.300Z,1.60
2023-04-30T19:58:27.546Z,1.10
2023-04-30T20:01:29.669Z,0.98
2023-04-30T20:04:31.690Z,1.08
2023-04-30T20:07:33.914Z,0.87
2023-04-30T20:10:37.239Z,0.93
2023-04-30T20:13:39.820Z,1.48
2023-04-30T20:16:41.955Z,1.27
2023-04-30T20:19:44.207Z,1.30
2023-04-30T20:22:51.794Z,0.80
2023-04-30T20:25:55.130Z,1.02
2023-04-30T20:29:01.056Z,1.20
2023-04-30T20:32:05.485Z,1.25
2023-04-30T20:35:08.366Z,0.98
2023-04-30T20:38:10.823Z,1.20
2023-04-30T20:41:12.731Z,0.98
2023-04-30T20:44:14.795Z,1.40
2023-04-30T20:47:16.829Z,4.15
2023-04-30T20:50:20.499Z,2.60
2023-04-30T20:53:23.005Z,1.63
2023-04-30T20:56:24.983Z,0.90
2023-04-30T20:59:26.872Z,1.30
2023-04-30T21:02:29.727Z,1.25
2023-04-30T21:05:32.338Z,1.30
2023-04-30T21:08:34.273Z,1.77
2023-04-30T21:11:36.680Z,1.13
2023-04-30T21:14:38.796Z,1.23
2023-04-30T21:17:40.924Z,1.38
2023-04-30T21:20:43.061Z,1.35
2023-04-30T21:23:47.286Z,1.13
2023-04-30T21:26:50.133Z,1.05
2023-04-30T21:29:51.991Z,1.00
2023-04-30T21:32:58.862Z,1.80
2023-04-30T21:36:01.094Z,1.50
2023-04-30T21:39:04.068Z,1.13
2023-04-30T21:42:06.004Z,1.10
2023-04-30T21:45:09.169Z,1.40
2023-04-30T21:48:11.200Z,0.70
2023-04-30T21:51:17.022Z,0.80
2023-04-30T21:54:19.355Z,1.00
2023-04-30T21:57:21.526Z,1.08
2023-04-30T22:00:32.983Z,1.17
2023-04-30T22:03:35.293Z,1.05
2023-04-30T22:06:37.480Z,1.35
2023-04-30T22:09:39.767Z,0.97
2023-04-30T22:12:43.843Z,1.15
2023-04-30T22:15:48.396Z,0.85
2023-04-30T22:18:51.247Z,1.23
2023-04-30T22:21:53.206Z,8.13
2023-04-30T22:24:55.313Z,3.23
2023-04-30T22:27:57.267Z,2.72
2023-04-30T22:31:02.560Z,2.70
2023-04-30T22:34:04.950Z,2.78
2023-04-30T22:37:10.503Z,2.70
2023-04-30T22:40:12.880Z,3.60
2023-04-30T22:43:15.166Z,2.83
2023-04-30T22:46:17.658Z,3.30
2023-04-30T22:49:31.082Z,2.40
2023-04-30T22:52:34.245Z,2.40
2023-04-30T22:55:36.210Z,2.93
2023-04-30T22:58:38.162Z,2.60
2023-04-30T23:01:40.050Z,2.90
2023-04-30T23:04:42.290Z,2.22
2023-04-30T23:07:48.047Z,2.80
2023-04-30T23:10:50.439Z,2.40
2023-04-30T23:13:52.467Z,1.95
2023-04-30T23:16:54.555Z,2.30
2023-04-30T23:19:56.733Z,1.88
2023-04-30T23:22:59.017Z,1.65
2023-04-30T23:26:01.251Z,1.83
2023-04-30T23:29:03.487Z,1.50
2023-04-30T23:32:06.119Z,1.70
2023-04-30T23:35:09.086Z,1.50
2023-04-30T23:38:11.134Z,2.40
2023-04-30T23:41:14.117Z,1.10
2023-04-30T23:44:16.112Z,1.25
2023-04-30T23:47:17.982Z,1.20
2023-04-30T23:50:20.261Z,0.60
2023-04-30T23:53:22.405Z,0.38
2023-04-30T23:56:24.415Z,0.30
2023-04-30T23:59:26.910Z,0.30
